createdAt,value
2022-09-10T00:03:22.235Z,11.45
2022-09-10T00:08:25.081Z,11.44
2022-09-10T00:13:27.838Z,11.41
2022-09-10T00:18:31.320Z,11.41
2022-09-10T00:23:35.217Z,11.40
2022-09-10T00:28:38.383Z,11.37
2022-09-10T00:33:42.115Z,11.34
2022-09-10T00:38:45.247Z,11.31
2022-09-10T00:43:53.906Z,11.27
2022-09-10T00:48:59.086Z,11.22
2022-09-10T00:54:03.901Z,11.19
2022-09-10T00:59:10.220Z,11.21
2022-09-10T01:04:13.202Z,11.23
2022-09-10T01:09:16.276Z,11.26
2022-09-10T01:14:32.494Z,11.32
2022-09-10T01:19:53.746Z,11.32
2022-09-10T01:25:05.080Z,11.27
2022-09-10T01:30:09.820Z,11.25
2022-09-10T01:35:18.747Z,11.28
2022-09-10T01:40:30.137Z,11.28
2022-09-10T01:45:47.835Z,11.26
2022-09-10T01:51:34.519Z,11.26
2022-09-10T01:56:53.505Z,11.24
2022-09-10T02:02:04.147Z,11.21
2022-09-10T02:07:07.695Z,11.19
2022-09-10T02:12:19.762Z,11.20
2022-09-10T02:17:28.383Z,11.21
2022-09-10T02:22:33.941Z,11.20
2022-09-10T02:27:38.374Z,11.15
2022-09-10T02:32:41.161Z,11.15
2022-09-10T02:37:43.949Z,11.18
2022-09-10T02:42:47.196Z,11.17
2022-09-10T02:47:50.163Z,11.17
2022-09-10T02:52:53.986Z,11.20
2022-09-10T02:57:56.795Z,11.20
2022-09-10T03:03:02.954Z,11.17
2022-09-10T03:08:06.787Z,11.17
2022-09-10T03:13:09.567Z,11.20
2022-09-10T03:18:13.013Z,11.19
2022-09-10T03:23:16.377Z,11.17
2022-09-10T03:28:20.252Z,11.16
2022-09-10T03:33:23.050Z,11.14
2022-09-10T03:38:27.150Z,11.12
2022-09-10T03:43:30.638Z,11.08
2022-09-10T03:48:33.403Z,11.05
2022-09-10T03:53:36.546Z,11.05
2022-09-10T03:58:39.284Z,11.06
2022-09-10T04:03:42.308Z,11.05
2022-09-10T04:08:49.759Z,11.06
2022-09-10T04:13:53.014Z,11.08
2022-09-10T04:18:55.789Z,11.10
2022-09-10T04:24:00.865Z,11.10
2022-09-10T04:29:04.021Z,11.09
2022-09-10T04:34:07.830Z,11.13
2022-09-10T04:39:10.701Z,11.20
2022-09-10T04:44:13.841Z,11.23
2022-09-10T04:49:16.468Z,11.26
2022-09-10T04:54:19.861Z,11.30
2022-09-10T04:59:22.688Z,11.32
2022-09-10T05:04:25.623Z,11.38
2022-09-10T05:09:34.307Z,11.40
2022-09-10T05:14:38.136Z,11.38
2022-09-10T05:19:40.987Z,11.40
2022-09-10T05:24:44.318Z,11.42
2022-09-10T05:29:47.086Z,11.45
2022-09-10T05:34:49.931Z,11.53
2022-09-10T05:39:52.754Z,11.58
2022-09-10T05:44:55.594Z,11.61
2022-09-10T05:49:58.374Z,11.65
2022-09-10T05:55:01.194Z,11.70
2022-09-10T06:00:08.077Z,11.78
2022-09-10T06:05:10.909Z,11.89
2022-09-10T06:10:14.586Z,12.01
2022-09-10T06:15:17.917Z,12.06
2022-09-10T06:20:20.758Z,12.10
2022-09-10T06:25:24.232Z,12.14
2022-09-10T06:30:27.096Z,12.12
2022-09-10T06:35:29.965Z,12.11
2022-09-10T06:40:33.236Z,12.11
2022-09-10T06:45:40.146Z,12.13
2022-09-10T06:50:51.239Z,12.21
2022-09-10T06:55:54.130Z,12.31
2022-09-10T07:00:57.005Z,12.44
2022-09-10T07:06:04.407Z,12.56
2022-09-10T07:11:13.009Z,12.64
2022-09-10T07:16:25.921Z,12.74
2022-09-10T07:21:29.194Z,12.87
2022-09-10T07:26:32.129Z,12.95
2022-09-10T07:31:35.562Z,13.06
2022-09-10T07:36:38.285Z,13.23
2022-09-10T07:41:41.033Z,13.49
2022-09-10T07:46:43.954Z,13.85
2022-09-10T07:51:47.142Z,14.15
2022-09-10T07:56:50.244Z,14.23
2022-09-10T08:01:52.981Z,14.17
2022-09-10T08:06:56.900Z,14.06
2022-09-10T08:11:59.990Z,14.06
2022-09-10T08:17:02.838Z,14.07
2022-09-10T08:22:09.143Z,14.40
2022-09-10T08:27:16.544Z,14.86
2022-09-10T08:32:19.502Z,14.92
2022-09-10T08:37:22.264Z,14.87
2022-09-10T08:42:33.722Z,14.86
2022-09-10T08:47:44.735Z,14.80
2022-09-10T08:52:53.511Z,14.68
2022-09-10T08:58:01.078Z,14.75
2022-09-10T09:03:45.412Z,15.10
2022-09-10T09:08:50.275Z,15.62
2022-09-10T09:14:21.635Z,15.96
2022-09-10T09:19:53.444Z,16.00
2022-09-10T09:25:05.275Z,15.83
2022-09-10T09:30:37.297Z,15.67
2022-09-10T09:35:53.229Z,15.44
2022-09-10T09:40:59.239Z,15.26
2022-09-10T09:46:03.043Z,14.93
2022-09-10T09:51:11.694Z,14.76
2022-09-10T09:56:25.096Z,14.71
2022-09-10T10:01:29.088Z,14.66
2022-09-10T10:06:47.352Z,14.55
2022-09-10T10:11:56.074Z,14.40
2022-09-10T10:17:00.979Z,14.43
2022-09-10T10:22:19.460Z,14.36
2022-09-10T10:27:30.075Z,14.24
2022-09-10T10:32:44.829Z,14.26
2022-09-10T10:38:01.060Z,14.21
2022-09-10T10:43:54.733Z,14.13
2022-09-10T10:49:25.945Z,14.10
2022-09-10T10:54:47.777Z,14.05
2022-09-10T11:00:04.582Z,13.98
2022-09-10T11:05:18.496Z,13.92
2022-09-10T11:10:42.784Z,13.96
2022-09-10T11:15:59.625Z,14.07
2022-09-10T11:21:30.079Z,14.21
2022-09-10T11:26:58.161Z,14.30
2022-09-10T11:32:27.169Z,14.38
2022-09-10T11:37:43.462Z,14.38
2022-09-10T11:42:52.408Z,14.40
2022-09-10T11:48:14.864Z,14.47
2022-09-10T11:53:22.072Z,14.47
2022-09-10T11:58:34.971Z,14.51
2022-09-10T12:03:49.657Z,14.51
2022-09-10T12:09:01.738Z,14.41
2022-09-10T12:14:13.650Z,14.41
2022-09-10T12:19:38.788Z,14.44
2022-09-10T12:24:55.700Z,14.46
2022-09-10T12:30:36.347Z,14.48
2022-09-10T12:35:50.958Z,14.63
2022-09-10T12:40:55.823Z,14.82
2022-09-10T12:46:12.193Z,14.92
2022-09-10T12:51:18.122Z,14.94
2022-09-10T12:56:29.981Z,14.92
2022-09-10T13:01:46.378Z,14.91
2022-09-10T13:06:49.661Z,14.76
2022-09-10T13:11:56.965Z,14.65
2022-09-10T13:16:59.867Z,14.63
2022-09-10T13:22:03.701Z,14.59
2022-09-10T13:27:36.511Z,14.56
2022-09-10T13:32:44.437Z,14.46
2022-09-10T13:38:08.898Z,14.42
2022-09-10T13:43:23.516Z,14.31
2022-09-10T13:48:30.825Z,14.20
2022-09-10T13:53:35.197Z,14.15
2022-09-10T13:58:42.514Z,14.03
2022-09-10T14:03:45.548Z,13.91
2022-09-10T14:09:03.231Z,13.82
2022-09-10T14:14:11.352Z,13.71
2022-09-10T14:19:30.592Z,13.62
2022-09-10T14:24:36.116Z,13.58
2022-09-10T14:29:39.398Z,13.55
2022-09-10T14:34:42.263Z,13.51
2022-09-10T14:39:45.055Z,13.47
2022-09-10T14:44:47.945Z,13.44
2022-09-10T14:49:52.344Z,13.37
2022-09-10T14:54:56.272Z,13.37
2022-09-10T15:00:00.057Z,13.36
2022-09-10T15:05:02.962Z,13.34
2022-09-10T15:10:05.984Z,13.36
2022-09-10T15:15:17.589Z,13.38
2022-09-10T15:20:27.135Z,13.45
2022-09-10T15:25:38.731Z,13.50
2022-09-10T15:30:41.754Z,13.43
2022-09-10T15:35:44.471Z,13.38
2022-09-10T15:40:49.823Z,13.36
2022-09-10T15:45:52.667Z,13.32
2022-09-10T15:50:56.475Z,13.26
2022-09-10T15:56:04.976Z,13.26
2022-09-10T16:01:12.563Z,13.30
2022-09-10T16:06:15.930Z,13.26
2022-09-10T16:11:20.492Z,13.16
2022-09-10T16:16:26.836Z,13.08
2022-09-10T16:21:32.288Z,13.07
2022-09-10T16:26:38.403Z,13.06
2022-09-10T16:31:43.043Z,13.03
2022-09-10T16:36:48.967Z,13.03
2022-09-10T16:41:52.336Z,12.98
2022-09-10T16:46:57.718Z,12.86
2022-09-10T16:52:00.560Z,12.79
2022-09-10T16:57:03.473Z,12.75
2022-09-10T17:02:07.637Z,12.68
2022-09-10T17:07:10.579Z,12.58
2022-09-10T17:12:13.223Z,12.52
2022-09-10T17:17:16.009Z,12.47
2022-09-10T17:22:18.860Z,12.47
2022-09-10T17:27:25.390Z,12.45
2022-09-10T17:32:28.766Z,12.43
2022-09-10T17:37:32.479Z,12.44
2022-09-10T17:42:35.284Z,12.45
2022-09-10T17:47:39.308Z,12.43
2022-09-10T17:52:45.998Z,12.37
2022-09-10T17:57:49.318Z,12.33
2022-09-10T18:02:53.370Z,12.34
2022-09-10T18:07:56.607Z,12.36
2022-09-10T18:13:00.536Z,12.42
2022-09-10T18:18:03.446Z,12.42
2022-09-10T18:23:07.116Z,12.39
2022-09-10T18:28:09.928Z,12.34
2022-09-10T18:33:14.013Z,12.29
2022-09-10T18:38:16.811Z,12.30
2022-09-10T18:43:20.252Z,12.31
2022-09-10T18:48:23.042Z,12.30
2022-09-10T18:53:25.829Z,12.28
2022-09-10T18:58:28.626Z,12.28
2022-09-10T19:03:35.562Z,12.29
2022-09-10T19:08:39.874Z,12.24
2022-09-10T19:13:42.614Z,12.17
2022-09-10T19:18:56.352Z,12.15
2022-09-10T19:24:03.864Z,12.13
2022-09-10T19:29:07.143Z,12.11
2022-09-10T19:34:12.147Z,12.09
2022-09-10T19:39:17.091Z,12.05
2022-09-10T19:44:20.278Z,12.07
2022-09-10T19:49:23.001Z,12.03
2022-09-10T19:54:28.336Z,11.92
2022-09-10T19:59:31.123Z,11.82
2022-09-10T20:04:38.169Z,11.74
2022-09-10T20:09:41.026Z,11.69
2022-09-10T20:14:43.816Z,11.67
2022-09-10T20:19:46.590Z,11.68
2022-09-10T20:24:49.324Z,11.73
2022-09-10T20:29:52.169Z,11.81
2022-09-10T20:34:56.588Z,11.84
2022-09-10T20:39:59.387Z,11.82
2022-09-10T20:45:02.708Z,11.85
2022-09-10T20:50:06.620Z,11.82
2022-09-10T20:55:09.608Z,11.76
2022-09-10T21:00:13.224Z,11.74
2022-09-10T21:05:16.233Z,11.69
2022-09-10T21:10:19.193Z,11.65
2022-09-10T21:15:22.016Z,11.63
2022-09-10T21:20:24.785Z,11.65
2022-09-10T21:25:28.195Z,11.68
2022-09-10T21:30:31.244Z,11.70
2022-09-10T21:35:34.407Z,11.66
2022-09-10T21:40:37.241Z,11.65
2022-09-10T21:45:40.031Z,11.62
2022-09-10T21:50:42.781Z,11.57
2022-09-10T21:55:45.628Z,11.53
2022-09-10T22:00:48.496Z,11.54
2022-09-10T22:05:51.375Z,11.56
2022-09-10T22:10:54.289Z,11.55
2022-09-10T22:15:58.471Z,11.52
2022-09-10T22:21:02.255Z,11.50
2022-09-10T22:26:07.256Z,11.50
2022-09-10T22:31:13.348Z,11.53
2022-09-10T22:36:28.971Z,11.56
2022-09-10T22:41:34.169Z,11.61
2022-09-10T22:46:38.112Z,11.62
2022-09-10T22:51:41.221Z,11.53
2022-09-10T22:56:44.833Z,11.46
2022-09-10T23:01:47.873Z,11.44
2022-09-10T23:06:50.837Z,11.48
2022-09-10T23:11:54.344Z,11.48
2022-09-10T23:16:57.093Z,11.49
2022-09-10T23:21:59.873Z,11.52
2022-09-10T23:27:04.021Z,11.49
2022-09-10T23:32:07.002Z,11.47
2022-09-10T23:37:10.310Z,11.46
2022-09-10T23:42:13.101Z,11.45
2022-09-10T23:47:15.893Z,11.40
2022-09-10T23:52:19.350Z,11.40
2022-09-10T23:57:22.176Z,11.42
